Time;durP1;ratioP1;P1;durP2;ratioP2;P2;SDS_P1;SDS_P2;PMS_P1;PMS_P2;Temp;Humidity;BMP_temperature;BMP_pressure;BME280_temperature;BME280_humidity;BME280_pressure;Samples;Min_cycle;Max_cycle;Signal;HPM_P1;HPM_P2
2022/05/24 00:02:23;;;;;;;13.27;5.25;;;;;;;;;;5014883;28;20052;-64
2022/05/24 00:04:49;;;;;;;10.25;5.13;;;;;;;;;;5015501;28;20037;-64
2022/05/24 00:07:15;;;;;;;12.30;5.07;;;;;;;;;;5016317;28;20038;-64
2022/05/24 00:09:42;;;;;;;12.13;4.47;;;;;;;;;;5018748;28;20045;-64
2022/05/24 00:12:08;;;;;;;9.00;4.40;;;;;;;;;;5011134;28;20046;-64
2022/05/24 00:17:21;;;;;;;8.90;4.68;;;;;;;;;;5003632;28;20042;-64
2022/05/24 00:19:47;;;;;;;9.93;4.53;;;;;;;;;;5010147;28;21078;-64
2022/05/24 00:22:13;;;;;;;7.40;4.75;;;;;;;;;;5013322;28;20490;-64
2022/05/24 00:24:40;;;;;;;9.80;5.15;;;;;;;;;;5010368;28;20105;-64
2022/05/24 00:27:06;;;;;;;10.40;5.20;;;;;;;;;;5012949;28;20397;-64
2022/05/24 00:29:32;;;;;;;10.18;5.88;;;;;;;;;;5012075;28;20486;-64
2022/05/24 00:31:59;;;;;;;14.38;5.93;;;;;;;;;;5010983;28;20065;-64
2022/05/24 00:34:26;;;;;;;10.32;5.35;;;;;;;;;;5011522;28;20052;-64
2022/05/24 00:36:52;;;;;;;10.05;6.32;;;;;;;;;;5014192;28;20507;-64
2022/05/24 00:39:18;;;;;;;10.57;5.60;;;;;;;;;;5017532;28;20040;-65
2022/05/24 00:41:52;;;;;;;10.68;5.85;;;;;;;;;;5014394;28;20048;-64
2022/05/24 00:44:26;;;;;;;13.38;6.13;;;;;;;;;;5016001;28;20364;-64
2022/05/24 00:46:56;;;;;;;12.43;5.93;;;;;;;;;;5023712;28;20141;-64
2022/05/24 00:49:27;;;;;;;10.10;5.38;;;;;;;;;;5008733;28;20042;-64
2022/05/24 00:51:56;;;;;;;10.05;6.20;;;;;;;;;;5010746;28;20045;-64
2022/05/24 00:54:22;;;;;;;8.88;5.95;;;;;;;;;;5007453;28;20132;-64
2022/05/24 00:56:53;;;;;;;12.07;6.50;;;;;;;;;;5009527;28;20037;-63
2022/05/24 00:59:24;;;;;;;13.80;6.38;;;;;;;;;;5002555;28;20544;-64
2022/05/24 01:01:50;;;;;;;11.10;7.28;;;;;;;;;;5006639;28;20393;-64
2022/05/24 01:04:19;;;;;;;11.90;7.13;;;;;;;;;;5012217;28;20100;-64
2022/05/24 01:06:46;;;;;;;13.80;7.72;;;;;;;;;;5012043;28;20049;-64
2022/05/24 01:09:19;;;;;;;14.35;8.25;;;;;;;;;;5011343;28;20057;-64
2022/05/24 01:11:46;;;;;;;13.20;8.45;;;;;;;;;;5014514;28;20042;-64
2022/05/24 01:14:14;;;;;;;17.58;8.75;;;;;;;;;;5014405;28;20489;-64
2022/05/24 01:16:41;;;;;;;11.93;8.43;;;;;;;;;;5007607;28;20198;-64
2022/05/24 01:19:10;;;;;;;15.75;9.48;;;;;;;;;;5009499;28;20160;-64
2022/05/24 01:21:38;;;;;;;19.20;9.73;;;;;;;;;;5011109;28;20054;-64
2022/05/24 01:24:08;;;;;;;15.30;9.65;;;;;;;;;;5014117;28;20612;-64
2022/05/24 01:26:34;;;;;;;16.42;10.50;;;;;;;;;;5013507;28;20405;-64
2022/05/24 01:29:03;;;;;;;18.63;10.80;;;;;;;;;;5013841;28;20052;-64
2022/05/24 01:36:09;;;;;;;14.00;10.13;;;;;;;;;;5016621;28;20165;-64
2022/05/24 01:37:02;;;;;;;21.35;12.65;;;;;;;;;;5010422;28;20387;-65
2022/05/24 01:39:29;;;;;;;19.33;12.27;;;;;;;;;;4997282;28;20427;-64
2022/05/24 01:41:56;;;;;;;18.17;12.23;;;;;;;;;;5013223;28;20069;-64
2022/05/24 01:44:26;;;;;;;20.27;11.90;;;;;;;;;;4998651;28;20126;-64
2022/05/24 01:46:52;;;;;;;19.67;12.48;;;;;;;;;;5013871;28;20046;-64
2022/05/24 01:49:20;;;;;;;19.75;12.85;;;;;;;;;;5017794;28;20073;-64
2022/05/24 01:51:49;;;;;;;25.33;12.48;;;;;;;;;;5016931;28;20219;-64
2022/05/24 01:54:15;;;;;;;18.58;11.23;;;;;;;;;;5018722;28;20056;-64
2022/05/24 01:56:44;;;;;;;18.42;10.85;;;;;;;;;;5015773;28;20041;-64
2022/05/24 01:59:12;;;;;;;17.70;11.43;;;;;;;;;;5014489;28;20049;-64
2022/05/24 02:01:44;;;;;;;20.27;13.48;;;;;;;;;;5019462;28;20459;-64
2022/05/24 02:04:10;;;;;;;20.23;12.85;;;;;;;;;;5015893;28;20564;-64
2022/05/24 02:06:37;;;;;;;17.77;13.05;;;;;;;;;;5012439;28;20029;-64
2022/05/24 02:09:04;;;;;;;18.58;13.45;;;;;;;;;;5012461;28;20201;-64
2022/05/24 02:11:31;;;;;;;21.70;13.95;;;;;;;;;;5014158;28;20456;-64
2022/05/24 02:14:16;;;;;;;20.00;13.45;;;;;;;;;;5015353;28;20058;-64
2022/05/24 02:16:49;;;;;;;20.80;12.50;;;;;;;;;;5015357;28;20048;-64
2022/05/24 02:19:16;;;;;;;19.90;13.73;;;;;;;;;;5012520;28;20050;-64
2022/05/24 02:21:45;;;;;;;21.60;13.43;;;;;;;;;;5014118;28;20054;-64
2022/05/24 02:24:21;;;;;;;23.95;14.48;;;;;;;;;;5015426;28;20048;-64
2022/05/24 02:26:48;;;;;;;24.38;15.00;;;;;;;;;;5014366;28;20057;-65
2022/05/24 02:29:15;;;;;;;30.23;17.55;;;;;;;;;;5015532;28;20055;-64
2022/05/24 02:31:42;;;;;;;29.20;18.67;;;;;;;;;;5012620;28;20406;-64
2022/05/24 02:34:08;;;;;;;30.85;20.02;;;;;;;;;;5017145;28;20038;-64
2022/05/24 02:36:35;;;;;;;31.52;19.92;;;;;;;;;;4990582;28;20058;-64
2022/05/24 02:39:02;;;;;;;34.85;22.52;;;;;;;;;;5005761;28;20124;-64
2022/05/24 02:41:28;;;;;;;39.47;25.08;;;;;;;;;;5004090;28;20045;-64
2022/05/24 02:43:55;;;;;;;42.15;26.90;;;;;;;;;;5008186;28;20042;-64
2022/05/24 02:46:21;;;;;;;44.28;27.27;;;;;;;;;;5006580;28;20181;-64
2022/05/24 02:48:47;;;;;;;49.67;28.73;;;;;;;;;;5005745;28;20494;-64
2022/05/24 02:51:15;;;;;;;53.53;31.15;;;;;;;;;;5007833;28;20100;-64
2022/05/24 02:53:42;;;;;;;52.33;30.98;;;;;;;;;;4999084;28;20161;-65
2022/05/24 02:56:08;;;;;;;57.10;33.47;;;;;;;;;;5006981;28;20097;-65
2022/05/24 02:58:35;;;;;;;54.90;33.15;;;;;;;;;;5004313;28;20050;-65
2022/05/24 03:01:02;;;;;;;61.10;36.50;;;;;;;;;;4999158;28;20046;-64
2022/05/24 03:03:28;;;;;;;53.45;34.03;;;;;;;;;;5005412;28;20535;-64
2022/05/24 03:05:54;;;;;;;56.10;36.05;;;;;;;;;;5008056;28;20113;-65
2022/05/24 03:11:06;;;;;;;51.35;33.58;;;;;;;;;;5007703;28;20066;-64
2022/05/24 03:16:17;;;;;;;46.45;32.55;;;;;;;;;;4982381;28;20053;-64
2022/05/24 03:18:43;;;;;;;45.78;32.10;;;;;;;;;;5006244;28;21765;-65
2022/05/24 03:21:09;;;;;;;54.40;34.85;;;;;;;;;;5003194;28;20125;-64
2022/05/24 03:23:36;;;;;;;53.63;33.30;;;;;;;;;;4984557;28;20052;-64
2022/05/24 03:26:03;;;;;;;41.63;29.20;;;;;;;;;;5005839;28;20056;-64
2022/05/24 03:28:29;;;;;;;36.03;26.60;;;;;;;;;;5005608;28;20042;-64
2022/05/24 03:30:55;;;;;;;33.45;25.90;;;;;;;;;;5001689;28;20097;-64
2022/05/24 03:33:21;;;;;;;34.78;25.38;;;;;;;;;;5005347;28;20046;-64
2022/05/24 03:35:48;;;;;;;34.90;26.17;;;;;;;;;;5009736;28;20129;-65
2022/05/24 03:38:14;;;;;;;33.55;23.52;;;;;;;;;;5015562;28;20095;-64
2022/05/24 03:40:40;;;;;;;31.33;23.40;;;;;;;;;;5011056;28;20453;-64
2022/05/24 03:43:11;;;;;;;32.85;21.30;;;;;;;;;;5010067;28;20037;-64
2022/05/24 03:45:38;;;;;;;27.15;21.52;;;;;;;;;;5012974;28;20053;-64
2022/05/24 03:48:04;;;;;;;29.15;21.80;;;;;;;;;;5012507;28;20029;-64
2022/05/24 03:50:30;;;;;;;28.08;19.45;;;;;;;;;;4996404;28;20462;-64
2022/05/24 03:52:56;;;;;;;29.45;18.50;;;;;;;;;;4995790;28;20141;-64
2022/05/24 03:55:22;;;;;;;24.85;17.60;;;;;;;;;;5012754;28;20041;-64
2022/05/24 03:58:01;;;;;;;24.35;16.13;;;;;;;;;;5015768;28;20038;-64
2022/05/24 04:00:30;;;;;;;21.50;15.00;;;;;;;;;;5010150;28;20124;-64
2022/05/24 04:02:57;;;;;;;23.40;14.32;;;;;;;;;;5015028;28;20045;-64
2022/05/24 04:05:23;;;;;;;21.38;12.98;;;;;;;;;;5010755;28;20180;-64
2022/05/24 04:07:49;;;;;;;22.95;13.38;;;;;;;;;;5013530;28;20046;-64
2022/05/24 04:10:16;;;;;;;19.10;13.35;;;;;;;;;;5011686;28;20052;-64
2022/05/24 04:12:43;;;;;;;22.75;13.13;;;;;;;;;;5015671;28;20046;-64
2022/05/24 04:15:10;;;;;;;27.95;12.80;;;;;;;;;;4999484;28;20160;-64
2022/05/24 04:17:36;;;;;;;20.77;11.82;;;;;;;;;;4996190;28;20053;-64
2022/05/24 04:20:03;;;;;;;18.92;11.23;;;;;;;;;;5012853;28;20142;-64
2022/05/24 04:22:29;;;;;;;20.00;12.07;;;;;;;;;;5015918;28;20084;-64
2022/05/24 04:24:55;;;;;;;22.73;12.38;;;;;;;;;;5003966;28;20045;-64
2022/05/24 04:27:22;;;;;;;21.63;12.07;;;;;;;;;;5011134;28;20517;-64
2022/05/24 04:29:51;;;;;;;20.00;11.30;;;;;;;;;;5015261;28;20125;-64
2022/05/24 04:32:18;;;;;;;17.58;10.70;;;;;;;;;;5009081;28;20046;-64
2022/05/24 04:34:44;;;;;;;16.45;10.45;;;;;;;;;;5010030;28;20064;-64
2022/05/24 04:37:10;;;;;;;18.10;9.88;;;;;;;;;;5008842;28;20129;-64
2022/05/24 04:39:37;;;;;;;20.75;10.18;;;;;;;;;;5013800;28;20077;-64
2022/05/24 04:42:18;;;;;;;17.30;10.10;;;;;;;;;;5011456;28;20084;-64
2022/05/24 04:44:45;;;;;;;17.95;9.75;;;;;;;;;;5011238;28;20405;-64
2022/05/24 04:47:13;;;;;;;16.80;10.02;;;;;;;;;;5011729;28;20509;-64
2022/05/24 04:49:42;;;;;;;14.30;8.65;;;;;;;;;;5010546;28;20116;-64
2022/05/24 04:52:09;;;;;;;17.60;9.25;;;;;;;;;;5010177;28;20033;-64
2022/05/24 04:54:37;;;;;;;15.20;9.65;;;;;;;;;;5014581;28;20123;-64
2022/05/24 04:57:04;;;;;;;17.48;8.90;;;;;;;;;;5011772;28;20054;-64
2022/05/24 04:59:30;;;;;;;20.50;8.90;;;;;;;;;;5021349;28;20552;-64
2022/05/24 05:01:56;;;;;;;18.40;9.57;;;;;;;;;;5014096;28;20505;-64
2022/05/24 05:04:24;;;;;;;19.35;10.27;;;;;;;;;;5009702;28;20406;-64
2022/05/24 05:06:50;;;;;;;17.13;9.75;;;;;;;;;;5018627;28;20436;-64
2022/05/24 05:09:16;;;;;;;22.25;10.93;;;;;;;;;;5010458;28;20133;-63
2022/05/24 05:11:43;;;;;;;21.95;10.88;;;;;;;;;;5017473;28;20041;-64
2022/05/24 05:14:09;;;;;;;20.27;11.10;;;;;;;;;;5003667;28;20571;-64
2022/05/24 05:16:37;;;;;;;18.55;11.38;;;;;;;;;;5010272;28;20046;-65
2022/05/24 05:19:04;;;;;;;21.08;10.30;;;;;;;;;;5018167;28;20052;-65
2022/05/24 05:21:31;;;;;;;20.38;11.45;;;;;;;;;;5015854;28;20053;-64
2022/05/24 05:23:58;;;;;;;19.50;11.65;;;;;;;;;;5017754;28;20128;-65
2022/05/24 05:26:24;;;;;;;26.42;12.32;;;;;;;;;;5019606;28;20050;-65
2022/05/24 05:28:51;;;;;;;22.10;13.40;;;;;;;;;;4999617;28;20041;-64
2022/05/24 05:31:17;;;;;;;20.20;13.80;;;;;;;;;;5023340;28;20430;-63
2022/05/24 05:33:44;;;;;;;22.02;14.00;;;;;;;;;;5021199;28;20048;-63
2022/05/24 05:36:11;;;;;;;25.80;14.48;;;;;;;;;;5005537;28;20467;-65
2022/05/24 05:38:37;;;;;;;19.60;15.35;;;;;;;;;;4993788;28;20054;-65
2022/05/24 05:41:04;;;;;;;29.73;16.65;;;;;;;;;;4995339;28;20046;-64
2022/05/24 05:43:30;;;;;;;23.98;15.80;;;;;;;;;;4999000;28;20074;-64
2022/05/24 05:45:58;;;;;;;26.83;16.83;;;;;;;;;;4997968;28;20038;-65
2022/05/24 05:48:24;;;;;;;27.00;15.90;;;;;;;;;;4994304;28;20125;-64
2022/05/24 05:50:50;;;;;;;33.85;19.15;;;;;;;;;;4994963;28;20046;-65
2022/05/24 05:53:17;;;;;;;25.33;19.20;;;;;;;;;;4993748;28;20041;-64
2022/05/24 05:55:43;;;;;;;28.02;18.77;;;;;;;;;;4994615;28;20034;-65
2022/05/24 05:58:10;;;;;;;31.33;19.13;;;;;;;;;;4993133;28;20050;-64
2022/05/24 06:00:37;;;;;;;26.75;19.92;;;;;;;;;;5000820;28;20370;-64
2022/05/24 06:03:03;;;;;;;27.13;19.60;;;;;;;;;;5006173;28;20048;-64
2022/05/24 06:05:29;;;;;;;30.23;20.08;;;;;;;;;;5006846;28;20064;-65
2022/05/24 06:07:56;;;;;;;31.40;20.35;;;;;;;;;;4996474;28;20034;-65
2022/05/24 06:10:23;;;;;;;28.73;19.77;;;;;;;;;;4988891;28;20041;-65
2022/05/24 06:12:49;;;;;;;38.72;21.15;;;;;;;;;;4995739;28;20039;-65
2022/05/24 06:15:16;;;;;;;31.45;20.90;;;;;;;;;;5007644;28;20052;-65
2022/05/24 06:17:45;;;;;;;33.35;18.50;;;;;;;;;;4995490;28;20053;-65
2022/05/24 06:20:12;;;;;;;37.13;20.40;;;;;;;;;;4995018;28;20042;-65
2022/05/24 06:22:38;;;;;;;27.05;16.52;;;;;;;;;;4999538;28;20038;-64
2022/05/24 06:25:05;;;;;;;32.90;16.02;;;;;;;;;;4991977;28;20034;-64
2022/05/24 06:27:31;;;;;;;23.38;15.30;;;;;;;;;;4993466;28;20041;-64
2022/05/24 06:29:57;;;;;;;15.55;7.38;;;;;;;;;;4997989;28;20046;-64
2022/05/24 06:32:23;;;;;;;8.90;4.53;;;;;;;;;;4995869;28;20209;-64
2022/05/24 06:34:52;;;;;;;9.15;4.65;;;;;;;;;;4986129;28;21340;-64
2022/05/24 06:37:19;;;;;;;10.20;5.25;;;;;;;;;;5013086;28;20443;-64
2022/05/24 06:39:46;;;;;;;9.57;3.72;;;;;;;;;;5017680;28;20481;-64
2022/05/24 06:42:12;;;;;;;12.98;3.63;;;;;;;;;;5020216;28;20152;-64
2022/05/24 06:44:38;;;;;;;6.97;3.40;;;;;;;;;;5019856;28;20450;-65
2022/05/24 06:47:05;;;;;;;10.45;4.68;;;;;;;;;;5016387;28;20401;-65
2022/05/24 06:49:31;;;;;;;11.63;4.88;;;;;;;;;;5009028;28;20053;-64
2022/05/24 06:51:58;;;;;;;7.18;3.85;;;;;;;;;;5014754;28;20037;-65
2022/05/24 06:54:24;;;;;;;14.95;4.72;;;;;;;;;;5016709;28;20045;-65
2022/05/24 06:56:50;;;;;;;13.82;5.68;;;;;;;;;;5020018;28;20045;-65
2022/05/24 07:04:46;;;;;;;9.80;5.68;;;;;;;;;;5029542;28;20056;-63
2022/05/24 07:07:13;;;;;;;13.27;5.93;;;;;;;;;;5024979;28;20915;-64
2022/05/24 07:09:40;;;;;;;12.30;5.25;;;;;;;;;;5018578;28;20212;-65
2022/05/24 07:12:06;;;;;;;14.88;5.78;;;;;;;;;;5016388;28;20188;-64
2022/05/24 07:14:34;;;;;;;16.00;6.70;;;;;;;;;;5013677;28;20038;-65
2022/05/24 07:17:00;;;;;;;14.18;6.88;;;;;;;;;;5014544;28;20482;-64
2022/05/24 07:19:27;;;;;;;19.90;7.53;;;;;;;;;;5016429;28;20044;-63
2022/05/24 07:21:53;;;;;;;19.30;7.20;;;;;;;;;;5018630;28;20256;-64
2022/05/24 07:24:19;;;;;;;13.93;7.53;;;;;;;;;;5019929;28;20045;-64
2022/05/24 07:26:45;;;;;;;14.32;8.00;;;;;;;;;;5033517;28;20053;-64
2022/05/24 07:29:11;;;;;;;15.60;8.35;;;;;;;;;;5030718;28;20135;-64
2022/05/24 07:31:39;;;;;;;14.60;8.05;;;;;;;;;;5033510;28;20041;-64
2022/05/24 07:34:06;;;;;;;13.38;7.70;;;;;;;;;;5033322;28;20061;-64
2022/05/24 07:36:32;;;;;;;14.18;7.35;;;;;;;;;;5032683;28;20501;-64
2022/05/24 07:38:58;;;;;;;13.10;7.65;;;;;;;;;;5033479;28;20092;-64
2022/05/24 07:46:56;;;;;;;16.98;8.63;;;;;;;;;;5033084;28;20477;-64
2022/05/24 07:49:22;;;;;;;17.40;7.55;;;;;;;;;;5014841;28;20053;-64
2022/05/24 07:51:49;;;;;;;11.30;7.07;;;;;;;;;;5030740;28;20052;-64
2022/05/24 07:54:15;;;;;;;14.85;7.25;;;;;;;;;;5013432;28;20180;-64
2022/05/24 07:56:42;;;;;;;12.82;6.97;;;;;;;;;;5012482;28;20046;-64
2022/05/24 07:59:09;;;;;;;9.88;5.75;;;;;;;;;;5013132;28;20048;-64
2022/05/24 08:01:36;;;;;;;12.77;6.10;;;;;;;;;;5013578;28;20042;-64
2022/05/24 08:04:03;;;;;;;13.63;5.90;;;;;;;;;;5012432;28;20121;-64
2022/05/24 08:06:29;;;;;;;12.57;5.72;;;;;;;;;;5013061;28;20060;-64
2022/05/24 08:08:55;;;;;;;9.25;5.20;;;;;;;;;;5013072;28;20136;-64
2022/05/24 08:11:21;;;;;;;9.30;4.88;;;;;;;;;;5012298;28;20049;-64
2022/05/24 08:13:48;;;;;;;9.05;3.35;;;;;;;;;;5024480;28;20345;-65
2022/05/24 08:16:14;;;;;;;9.05;4.15;;;;;;;;;;5032654;28;20049;-64
2022/05/24 08:18:40;;;;;;;13.52;4.47;;;;;;;;;;5032198;28;20053;-64
2022/05/24 08:21:06;;;;;;;12.90;4.65;;;;;;;;;;5032634;28;20045;-64
2022/05/24 08:23:33;;;;;;;6.93;3.55;;;;;;;;;;5026131;28;20604;-63
2022/05/24 08:25:59;;;;;;;8.95;4.10;;;;;;;;;;5024056;28;20049;-64
2022/05/24 08:28:26;;;;;;;8.57;3.80;;;;;;;;;;5015388;28;20425;-64
2022/05/24 08:30:53;;;;;;;9.45;4.90;;;;;;;;;;5013830;28;20129;-64
2022/05/24 08:33:21;;;;;;;8.70;5.20;;;;;;;;;;5021162;28;20041;-62
2022/05/24 08:35:47;;;;;;;10.07;5.10;;;;;;;;;;5014209;28;20057;-62
2022/05/24 08:38:14;;;;;;;13.35;5.45;;;;;;;;;;5010464;28;20053;-62
2022/05/24 08:40:41;;;;;;;8.95;5.03;;;;;;;;;;5022366;28;20469;-63
2022/05/24 08:43:13;;;;;;;10.60;5.75;;;;;;;;;;5023854;28;20111;-63
2022/05/24 08:48:44;;;;;;;13.80;5.20;;;;;;;;;;5023268;28;20042;-64
2022/05/24 08:51:15;;;;;;;23.17;7.75;;;;;;;;;;5019485;28;20049;-64
2022/05/24 08:53:45;;;;;;;13.75;4.97;;;;;;;;;;5012774;28;20096;-64
2022/05/24 08:56:15;;;;;;;14.35;4.15;;;;;;;;;;5011703;28;20972;-64
2022/05/24 08:58:43;;;;;;;12.07;5.25;;;;;;;;;;5011520;28;20084;-63
2022/05/24 09:01:15;;;;;;;13.55;5.30;;;;;;;;;;5016322;28;20068;-64
2022/05/24 09:03:41;;;;;;;14.60;5.25;;;;;;;;;;5011586;28;20377;-64
2022/05/24 09:06:11;;;;;;;16.52;6.93;;;;;;;;;;5011591;28;20037;-64
2022/05/24 09:08:45;;;;;;;11.40;6.78;;;;;;;;;;5011105;28;20379;-64
2022/05/24 09:11:13;;;;;;;11.10;6.78;;;;;;;;;;5011794;28;20454;-64
2022/05/24 09:13:45;;;;;;;18.38;8.95;;;;;;;;;;5010677;28;20521;-65
2022/05/24 09:16:13;;;;;;;17.35;9.00;;;;;;;;;;5011843;28;20061;-64
2022/05/24 09:18:51;;;;;;;10.20;7.65;;;;;;;;;;5016380;28;20105;-64
2022/05/24 09:21:20;;;;;;;13.52;8.73;;;;;;;;;;5008441;28;20120;-64
2022/05/24 09:23:48;;;;;;;16.00;8.00;;;;;;;;;;5006692;28;20049;-64
2022/05/24 09:26:20;;;;;;;16.33;9.98;;;;;;;;;;5013437;28;20054;-65
2022/05/24 09:28:49;;;;;;;12.68;7.50;;;;;;;;;;4997012;28;20045;-64
2022/05/24 09:31:20;;;;;;;11.38;7.30;;;;;;;;;;5016110;28;20034;-64
2022/05/24 09:33:46;;;;;;;9.27;5.63;;;;;;;;;;5012827;28;20433;-64
2022/05/24 09:36:25;;;;;;;16.05;6.30;;;;;;;;;;5009921;28;20108;-64
2022/05/24 09:38:51;;;;;;;13.13;6.53;;;;;;;;;;5012823;28;20042;-64
2022/05/24 09:41:19;;;;;;;10.30;7.05;;;;;;;;;;5012790;28;20061;-65
2022/05/24 09:43:57;;;;;;;11.65;8.77;;;;;;;;;;5007922;28;20053;-65
2022/05/24 09:46:25;;;;;;;13.35;7.78;;;;;;;;;;5017014;28;20082;-64
2022/05/24 09:48:56;;;;;;;9.93;5.82;;;;;;;;;;4993983;28;20125;-64
2022/05/24 09:51:25;;;;;;;8.55;6.07;;;;;;;;;;5014813;28;20038;-64
2022/05/24 09:53:53;;;;;;;9.20;4.97;;;;;;;;;;5011312;28;20073;-65
2022/05/24 09:56:22;;;;;;;8.85;4.65;;;;;;;;;;5010556;28;20037;-65
2022/05/24 09:58:53;;;;;;;7.68;4.30;;;;;;;;;;5011151;28;20046;-64
2022/05/24 10:01:31;;;;;;;9.50;5.13;;;;;;;;;;5011619;28;20057;-64
2022/05/24 10:04:10;;;;;;;7.30;3.92;;;;;;;;;;5011834;28;20058;-64
2022/05/24 10:06:37;;;;;;;74.80;10.02;;;;;;;;;;5014834;28;20049;-64
2022/05/24 10:09:17;;;;;;;29.45;5.65;;;;;;;;;;5015151;28;20038;-64
2022/05/24 10:11:51;;;;;;;11.15;3.15;;;;;;;;;;5015694;28;20045;-64
2022/05/24 10:14:23;;;;;;;37.83;5.30;;;;;;;;;;5014653;28;20041;-62
2022/05/24 10:16:52;;;;;;;13.00;3.38;;;;;;;;;;5013218;28;20382;-62
2022/05/24 10:19:26;;;;;;;7.63;2.95;;;;;;;;;;5017434;28;20453;-62
2022/05/24 10:21:58;;;;;;;6.88;2.70;;;;;;;;;;5018738;28;20049;-63
2022/05/24 10:24:34;;;;;;;6.38;3.03;;;;;;;;;;5015828;28;20045;-62
2022/05/24 10:27:13;;;;;;;9.90;4.00;;;;;;;;;;5019515;28;20038;-63
2022/05/24 10:29:49;;;;;;;8.48;4.13;;;;;;;;;;5012310;28;20064;-64
2022/05/24 10:38:17;;;;;;;12.38;6.45;;;;;;;;;;5014878;28;20267;-64
2022/05/24 10:40:43;;;;;;;12.80;6.13;;;;;;;;;;5015816;28;20136;-64
2022/05/24 10:43:12;;;;;;;21.77;7.50;;;;;;;;;;5019709;28;20033;-64
2022/05/24 10:45:50;;;;;;;17.00;7.57;;;;;;;;;;5013319;28;20141;-64
2022/05/24 10:48:31;;;;;;;11.07;5.85;;;;;;;;;;5018168;28;20037;-64
2022/05/24 10:51:05;;;;;;;5.55;2.72;;;;;;;;;;5013846;28;20045;-64
2022/05/24 10:53:42;;;;;;;7.30;3.38;;;;;;;;;;5015363;28;20057;-64
2022/05/24 10:56:14;;;;;;;9.07;2.65;;;;;;;;;;5013897;28;20385;-64
2022/05/24 10:58:42;;;;;;;5.60;1.75;;;;;;;;;;5013948;28;20042;-64
2022/05/24 11:01:14;;;;;;;6.85;1.95;;;;;;;;;;5025856;28;20038;-64
2022/05/24 11:03:43;;;;;;;4.60;1.48;;;;;;;;;;5022957;28;20124;-64
2022/05/24 11:06:15;;;;;;;7.90;1.92;;;;;;;;;;5012605;28;20124;-65
2022/05/24 11:08:47;;;;;;;8.65;2.30;;;;;;;;;;5020254;28;20052;-65
2022/05/24 11:11:25;;;;;;;6.30;1.73;;;;;;;;;;5033458;28;20048;-64
2022/05/24 11:14:08;;;;;;;7.18;1.88;;;;;;;;;;5012655;28;20489;-64
2022/05/24 11:16:38;;;;;;;6.10;1.38;;;;;;;;;;5013098;28;20050;-64
2022/05/24 11:19:08;;;;;;;9.57;1.88;;;;;;;;;;5015673;28;20046;-64
2022/05/24 11:21:37;;;;;;;9.55;1.98;;;;;;;;;;5013986;28;20049;-64
2022/05/24 11:24:06;;;;;;;5.15;1.27;;;;;;;;;;5021664;28;20037;-64
2022/05/24 11:26:34;;;;;;;4.40;1.00;;;;;;;;;;5016615;28;20050;-64
2022/05/24 11:29:19;;;;;;;8.70;1.50;;;;;;;;;;5020977;28;20398;-64
2022/05/24 11:31:48;;;;;;;6.30;1.40;;;;;;;;;;5015177;28;20489;-64
2022/05/24 11:34:21;;;;;;;5.10;1.40;;;;;;;;;;5003360;28;20061;-64
2022/05/24 11:36:49;;;;;;;9.73;1.92;;;;;;;;;;4998941;28;20058;-64
2022/05/24 11:39:23;;;;;;;9.70;2.00;;;;;;;;;;5000174;28;20049;-65
2022/05/24 11:41:50;;;;;;;7.03;1.80;;;;;;;;;;5014302;28;20117;-64
2022/05/24 11:44:32;;;;;;;6.18;1.42;;;;;;;;;;5016312;28;20073;-64
2022/05/24 11:46:58;;;;;;;7.57;1.40;;;;;;;;;;5016670;28;20041;-64
2022/05/24 11:49:27;;;;;;;6.03;1.83;;;;;;;;;;5016021;28;20123;-64
2022/05/24 11:51:55;;;;;;;8.75;1.80;;;;;;;;;;5021774;28;20398;-65
2022/05/24 11:54:21;;;;;;;5.43;1.27;;;;;;;;;;5015805;28;20127;-64
2022/05/24 11:56:54;;;;;;;7.53;1.63;;;;;;;;;;5012120;28;20093;-64
2022/05/24 11:59:20;;;;;;;;;;;;;;;;;;5002834;28;20153;-64
2022/05/24 12:01:48;;;;;;;5.75;1.45;;;;;;;;;;5013884;28;19929;-64
2022/05/24 12:09:53;;;;;;;6.50;1.60;;;;;;;;;;5011497;28;20057;-64
2022/05/24 12:12:21;;;;;;;9.23;1.70;;;;;;;;;;5014540;28;20096;-64
2022/05/24 12:15:05;;;;;;;6.57;1.60;;;;;;;;;;4996942;28;20582;-64
2022/05/24 12:17:31;;;;;;;7.90;1.33;;;;;;;;;;5018994;28;20099;-64
2022/05/24 12:19:58;;;;;;;9.13;2.00;;;;;;;;;;5015402;28;20120;-64
2022/05/24 12:22:27;;;;;;;9.75;1.73;;;;;;;;;;5013840;28;20049;-64
2022/05/24 12:24:55;;;;;;;5.40;1.75;;;;;;;;;;5000145;28;20464;-64
2022/05/24 12:27:23;;;;;;;5.88;1.38;;;;;;;;;;5017054;28;20556;-64
2022/05/24 12:30:18;;;;;;;10.95;1.30;;;;;;;;;;5012932;28;20038;-64
2022/05/24 12:32:44;;;;;;;6.03;1.10;;;;;;;;;;5012095;28;20042;-64
2022/05/24 12:35:13;;;;;;;6.38;0.98;;;;;;;;;;5020624;28;20049;-64
2022/05/24 12:37:46;;;;;;;27.30;1.50;;;;;;;;;;5018289;28;20041;-64
2022/05/24 12:40:20;;;;;;;7.63;1.30;;;;;;;;;;5017222;28;20076;-64
2022/05/24 12:42:52;;;;;;;7.93;1.17;;;;;;;;;;5017984;28;20045;-65
2022/05/24 12:45:28;;;;;;;5.72;1.58;;;;;;;;;;4985868;28;20053;-65
2022/05/24 12:47:54;;;;;;;5.40;0.93;;;;;;;;;;5017878;28;20044;-65
2022/05/24 12:50:23;;;;;;;4.35;1.00;;;;;;;;;;5013341;28;20170;-65
2022/05/24 12:52:56;;;;;;;7.40;1.42;;;;;;;;;;5015660;28;20081;-65
2022/05/24 12:55:54;;;;;;;5.20;1.42;;;;;;;;;;5013033;28;20429;-65
2022/05/24 12:58:12;;;;;;;4.70;1.38;;;;;;;;;;5009446;28;20057;-65
2022/05/24 13:00:39;;;;;;;14.38;1.42;;;;;;;;;;5008891;28;20042;-65
2022/05/24 13:03:07;;;;;;;4.28;1.10;;;;;;;;;;5017179;28;20056;-65
2022/05/24 13:05:41;;;;;;;5.78;1.20;;;;;;;;;;5019889;28;20053;-66
2022/05/24 13:08:07;;;;;;;7.70;1.50;;;;;;;;;;5012825;28;20053;-66
2022/05/24 13:10:36;;;;;;;5.95;1.73;;;;;;;;;;5015107;28;20033;-66
2022/05/24 13:13:05;;;;;;;4.60;1.10;;;;;;;;;;5015372;28;20045;-65
2022/05/24 13:15:36;;;;;;;10.88;1.50;;;;;;;;;;5010768;28;20034;-65
2022/05/24 13:18:06;;;;;;;6.15;1.10;;;;;;;;;;5017351;28;20092;-65
2022/05/24 13:20:37;;;;;;;4.53;1.23;;;;;;;;;;5010918;28;20044;-65
2022/05/24 13:23:05;;;;;;;12.90;1.92;;;;;;;;;;5014690;28;20034;-65
2022/05/24 13:25:46;;;;;;;3.45;1.27;;;;;;;;;;5014666;28;20042;-65
2022/05/24 13:28:12;;;;;;;6.88;1.40;;;;;;;;;;5006353;28;20481;-63
2022/05/24 13:33:33;;;;;;;8.65;1.40;;;;;;;;;;5014928;28;20051;-63
2022/05/24 13:36:00;;;;;;;9.70;1.60;;;;;;;;;;5004436;28;20069;-64
2022/05/24 13:38:27;;;;;;;4.32;1.00;;;;;;;;;;5012910;28;20417;-65
2022/05/24 13:40:55;;;;;;;3.97;1.33;;;;;;;;;;5010434;28;20066;-65
2022/05/24 13:43:31;;;;;;;8.35;1.33;;;;;;;;;;5011936;28;20056;-76
2022/05/24 13:46:07;;;;;;;6.72;1.25;;;;;;;;;;5001721;28;20041;-65
2022/05/24 13:48:40;;;;;;;7.15;1.67;;;;;;;;;;5014711;28;21243;-65
2022/05/24 13:51:07;;;;;;;;;;;;;;;;;;5018928;28;20116;-65
2022/05/24 13:53:38;;;;;;;6.55;1.75;;;;;;;;;;5017739;28;20295;-65
2022/05/24 13:56:06;;;;;;;5.45;1.75;;;;;;;;;;5016194;28;20052;-64
2022/05/24 13:58:35;;;;;;;6.78;1.65;;;;;;;;;;5025460;28;20123;-64
2022/05/24 14:01:10;;;;;;;5.30;1.38;;;;;;;;;;5022132;28;20465;-64
2022/05/24 14:03:47;;;;;;;7.68;1.25;;;;;;;;;;5019059;28;20045;-64
2022/05/24 14:06:16;;;;;;;5.78;1.70;;;;;;;;;;5023014;28;20049;-65
2022/05/24 14:08:44;;;;;;;6.57;1.77;;;;;;;;;;5021106;28;21291;-65
2022/05/24 14:11:13;;;;;;;7.15;1.63;;;;;;;;;;4997784;28;20157;-65
2022/05/24 14:13:40;;;;;;;13.52;2.70;;;;;;;;;;5016784;28;20053;-65
2022/05/24 14:16:07;;;;;;;8.30;1.92;;;;;;;;;;5019536;28;20049;-65
2022/05/24 14:18:33;;;;;;;8.18;2.15;;;;;;;;;;5016708;28;20180;-65
2022/05/24 14:20:59;;;;;;;8.55;2.92;;;;;;;;;;5019813;28;20050;-65
2022/05/24 14:23:26;;;;;;;5.50;2.42;;;;;;;;;;5021409;28;20562;-65
2022/05/24 14:25:53;;;;;;;8.38;3.03;;;;;;;;;;5022752;28;20124;-64
2022/05/24 14:28:19;;;;;;;13.98;3.03;;;;;;;;;;5011989;28;20049;-66
2022/05/24 14:30:48;;;;;;;7.55;2.47;;;;;;;;;;5014572;28;20050;-65
2022/05/24 14:33:16;;;;;;;5.32;1.85;;;;;;;;;;5010303;28;20057;-64
2022/05/24 14:35:43;;;;;;;4.50;1.90;;;;;;;;;;5016465;28;20112;-64
2022/05/24 14:38:09;;;;;;;6.45;1.98;;;;;;;;;;5017528;28;20125;-64
2022/05/24 14:40:38;;;;;;;7.68;1.65;;;;;;;;;;5016975;28;20149;-64
2022/05/24 14:43:07;;;;;;;4.72;1.50;;;;;;;;;;5022069;28;20073;-64
2022/05/24 14:45:34;;;;;;;5.85;1.65;;;;;;;;;;5013650;28;20038;-64
2022/05/24 14:48:00;;;;;;;5.25;1.50;;;;;;;;;;5020747;28;20044;-64
2022/05/24 14:50:27;;;;;;;10.05;2.60;;;;;;;;;;5016382;28;20748;-64
2022/05/24 14:52:53;;;;;;;8.05;2.55;;;;;;;;;;5015780;28;20068;-64
2022/05/24 14:55:21;;;;;;;8.68;2.60;;;;;;;;;;5021279;28;20099;-64
2022/05/24 14:57:47;;;;;;;5.60;2.30;;;;;;;;;;5019164;28;20423;-64
2022/05/24 15:00:13;;;;;;;7.18;2.40;;;;;;;;;;5017233;28;20089;-64
2022/05/24 15:02:40;;;;;;;5.88;2.20;;;;;;;;;;5005624;28;20095;-63
2022/05/24 15:05:08;;;;;;;8.88;2.50;;;;;;;;;;5021382;28;20592;-64
2022/05/24 15:16:03;;;;;;;9.18;2.17;;;;;;;;;;4999379;28;20049;-64
2022/05/24 15:18:29;;;;;;;18.60;2.65;;;;;;;;;;5019463;28;20072;-64
2022/05/24 15:20:55;;;;;;;7.57;2.55;;;;;;;;;;5001173;28;20080;-64
2022/05/24 15:23:25;;;;;;;9.23;2.50;;;;;;;;;;5016101;28;20045;-64
2022/05/24 15:26:01;;;;;;;7.28;2.60;;;;;;;;;;5017310;28;20098;-64
2022/05/24 15:28:29;;;;;;;11.85;2.97;;;;;;;;;;5014764;28;20407;-63